createdAt,value
2019-03-24T00:01:56.620Z,61.93
2019-03-24T00:04:25.038Z,70.83
2019-03-24T00:06:53.427Z,68.57
2019-03-24T00:09:21.832Z,59.60
2019-03-24T00:11:50.240Z,53.10
2019-03-24T00:14:18.668Z,61.00
2019-03-24T00:16:47.049Z,61.00
2019-03-24T00:19:15.476Z,64.63
2019-03-24T00:21:43.871Z,67.50
2019-03-24T00:24:12.277Z,72.57
2019-03-24T00:26:40.670Z,73.70
2019-03-24T00:29:09.133Z,83.47
2019-03-24T00:31:37.588Z,77.83
2019-03-24T00:34:06.003Z,82.00
2019-03-24T00:36:34.409Z,86.70
2019-03-24T00:39:04.508Z,73.00
2019-03-24T00:41:32.908Z,77.23
2019-03-24T00:44:01.336Z,77.67
2019-03-24T00:46:29.739Z,62.87
2019-03-24T00:48:58.150Z,71.47
2019-03-24T00:51:26.556Z,67.83
2019-03-24T00:53:54.943Z,67.87
2019-03-24T00:56:23.355Z,76.70
2019-03-24T00:58:51.762Z,73.37
2019-03-24T01:01:20.235Z,67.03
2019-03-24T01:03:48.646Z,106.87
2019-03-24T01:06:17.705Z,237.77
2019-03-24T01:08:46.105Z,243.30
2019-03-24T01:11:14.525Z,95.20
2019-03-24T01:13:42.908Z,109.70
2019-03-24T01:16:11.336Z,85.73
2019-03-24T01:18:39.739Z,81.47
2019-03-24T01:21:08.165Z,66.73
2019-03-24T01:23:36.571Z,77.27
2019-03-24T01:26:05.068Z,61.43
2019-03-24T01:28:33.461Z,71.30
2019-03-24T01:31:01.897Z,64.33
2019-03-24T01:33:30.282Z,56.53
2019-03-24T01:35:58.708Z,66.80
2019-03-24T01:38:27.098Z,60.53
2019-03-24T01:40:55.497Z,59.47
2019-03-24T01:43:23.915Z,55.47
2019-03-24T01:45:58.576Z,67.07
2019-03-24T01:48:22.446Z,66.23
2019-03-24T01:50:50.849Z,65.30
2019-03-24T01:53:19.251Z,67.50
2019-03-24T01:55:47.662Z,85.27
2019-03-24T01:58:16.057Z,68.33
2019-03-24T02:00:44.480Z,57.80
2019-03-24T02:03:12.884Z,68.47
2019-03-24T02:05:41.303Z,69.63
2019-03-24T02:08:09.705Z,71.90
2019-03-24T02:10:38.105Z,65.83
2019-03-24T02:13:06.579Z,88.47
2019-03-24T02:15:34.994Z,67.53
2019-03-24T02:18:03.397Z,66.03
2019-03-24T02:20:31.815Z,69.57
2019-03-24T02:23:00.220Z,93.40
2019-03-24T02:25:28.629Z,87.10
2019-03-24T02:27:57.053Z,82.83
2019-03-24T02:30:25.450Z,85.53
2019-03-24T02:32:53.864Z,68.57
2019-03-24T02:35:22.272Z,61.77
2019-03-24T02:37:50.697Z,63.03
2019-03-24T02:40:19.580Z,67.47
2019-03-24T02:42:48.075Z,72.90
2019-03-24T02:45:16.550Z,66.43
2019-03-24T02:47:45.829Z,58.43
2019-03-24T02:50:14.380Z,65.70
2019-03-24T02:52:42.821Z,55.90
2019-03-24T02:55:11.870Z,65.63
2019-03-24T02:57:40.293Z,59.77
2019-03-24T03:00:10.211Z,62.17
2019-03-24T03:02:38.703Z,68.50
2019-03-24T03:05:10.206Z,66.93
2019-03-24T03:07:41.425Z,69.37
2019-03-24T03:10:11.277Z,76.40
2019-03-24T03:12:39.770Z,76.70
2019-03-24T03:15:09.520Z,87.07
2019-03-24T03:17:38.086Z,87.07
2019-03-24T03:20:07.543Z,71.67
2019-03-24T03:22:35.969Z,70.13
2019-03-24T03:25:08.891Z,71.17
2019-03-24T03:27:37.446Z,67.50
2019-03-24T03:30:09.093Z,75.50
2019-03-24T03:32:37.722Z,67.87
2019-03-24T03:35:07.792Z,61.10
2019-03-24T03:37:36.516Z,83.23
2019-03-24T03:40:06.665Z,75.27
2019-03-24T03:42:35.158Z,93.13
2019-03-24T03:45:04.200Z,85.77
2019-03-24T03:47:32.626Z,82.90
2019-03-24T03:50:01.040Z,87.63
2019-03-24T03:52:29.462Z,94.77
2019-03-24T03:54:57.895Z,82.90
2019-03-24T03:57:26.372Z,75.53
2019-03-24T03:59:54.773Z,93.67
2019-03-24T04:02:23.200Z,76.77
2019-03-24T04:04:51.609Z,84.77
2019-03-24T04:07:20.033Z,89.87
2019-03-24T04:09:48.441Z,78.00
2019-03-24T04:12:16.867Z,78.23
2019-03-24T04:14:45.277Z,81.83
2019-03-24T04:17:13.705Z,87.50
2019-03-24T04:19:42.115Z,89.97
2019-03-24T04:22:10.544Z,80.93
2019-03-24T04:24:38.953Z,82.13
2019-03-24T04:27:07.370Z,79.90
2019-03-24T04:29:35.780Z,88.60
2019-03-24T04:32:04.201Z,94.57
2019-03-24T04:34:32.607Z,90.70
2019-03-24T04:37:01.040Z,101.30
2019-03-24T04:39:29.521Z,85.00
2019-03-24T04:41:57.945Z,92.67
2019-03-24T04:44:26.353Z,81.27
2019-03-24T04:46:54.773Z,83.23
2019-03-24T04:49:23.180Z,79.10
2019-03-24T04:51:51.621Z,68.07
2019-03-24T04:54:20.035Z,80.07
2019-03-24T04:56:48.442Z,88.83
2019-03-24T04:59:16.978Z,86.23
2019-03-24T05:01:45.392Z,86.20
2019-03-24T05:04:13.884Z,79.37
2019-03-24T05:06:43.230Z,88.23
2019-03-24T05:09:11.671Z,87.40
2019-03-24T05:11:40.077Z,94.90
2019-03-24T05:14:08.586Z,91.03
2019-03-24T05:16:36.994Z,83.97
2019-03-24T05:19:05.493Z,81.23
2019-03-24T05:21:33.905Z,75.13
2019-03-24T05:24:02.332Z,82.40
2019-03-24T05:26:30.743Z,93.87
2019-03-24T05:28:59.166Z,83.43
2019-03-24T05:31:27.572Z,86.13
2019-03-24T05:33:56.010Z,86.63
2019-03-24T05:36:24.412Z,74.03
2019-03-24T05:38:52.835Z,84.23
2019-03-24T05:41:21.245Z,79.00
2019-03-24T05:43:49.753Z,79.07
2019-03-24T05:46:18.164Z,71.33
2019-03-24T05:48:46.585Z,68.10
2019-03-24T05:51:15.025Z,74.83
2019-03-24T05:53:43.498Z,80.57
2019-03-24T05:56:11.898Z,95.47
2019-03-24T05:58:40.319Z,85.03
2019-03-24T06:01:08.725Z,79.83
2019-03-24T06:03:37.148Z,77.33
2019-03-24T06:06:05.560Z,75.53
2019-03-24T06:08:35.778Z,78.33
2019-03-24T06:11:04.117Z,80.20
2019-03-24T06:13:32.542Z,93.50
2019-03-24T06:16:00.954Z,79.80
2019-03-24T06:18:29.376Z,78.23
2019-03-24T06:20:57.852Z,84.60
2019-03-24T06:23:26.277Z,86.00
2019-03-24T06:25:54.696Z,75.53
2019-03-24T06:28:23.112Z,74.43
2019-03-24T06:30:51.517Z,79.40
2019-03-24T06:33:19.928Z,74.57
2019-03-24T06:35:48.422Z,76.67
2019-03-24T06:38:16.831Z,71.60
2019-03-24T06:40:45.265Z,68.83
2019-03-24T06:43:13.674Z,64.07
2019-03-24T06:45:42.097Z,63.03
2019-03-24T06:48:10.512Z,60.87
2019-03-24T06:50:38.942Z,64.23
2019-03-24T06:53:07.425Z,62.73
2019-03-24T06:55:35.853Z,72.57
2019-03-24T06:58:04.334Z,68.70
2019-03-24T07:00:32.756Z,68.90
2019-03-24T07:03:01.166Z,63.73
2019-03-24T07:05:29.597Z,61.83
2019-03-24T07:07:58.002Z,62.37
2019-03-24T07:10:26.430Z,69.40
2019-03-24T07:12:54.837Z,73.83
2019-03-24T07:15:23.262Z,71.40
2019-03-24T07:17:51.672Z,63.83
2019-03-24T07:20:20.097Z,82.37
2019-03-24T07:22:48.649Z,66.87
2019-03-24T07:25:17.069Z,64.53
2019-03-24T07:27:45.477Z,59.13
2019-03-24T07:30:14.440Z,66.60
2019-03-24T07:32:42.849Z,74.73
2019-03-24T07:35:11.373Z,66.63
2019-03-24T07:37:39.825Z,67.83
2019-03-24T07:40:08.385Z,64.43
2019-03-24T07:42:36.788Z,63.17
2019-03-24T07:45:07.455Z,66.53
2019-03-24T07:47:35.856Z,63.50
2019-03-24T07:50:06.991Z,68.83
2019-03-24T07:52:35.404Z,68.50
2019-03-24T07:55:05.564Z,70.30
2019-03-24T07:57:33.970Z,69.33
2019-03-24T08:00:02.462Z,73.07
2019-03-24T08:02:30.868Z,70.33
2019-03-24T08:04:59.284Z,69.40
2019-03-24T08:07:27.687Z,74.03
2019-03-24T08:09:56.105Z,80.17
2019-03-24T08:12:24.514Z,78.60
2019-03-24T08:14:52.930Z,76.67
2019-03-24T08:17:21.334Z,77.33
2019-03-24T08:19:49.741Z,77.97
2019-03-24T08:22:18.157Z,83.40
2019-03-24T08:24:46.566Z,88.60
2019-03-24T08:27:15.043Z,92.40
2019-03-24T08:29:43.464Z,84.03
2019-03-24T08:32:11.888Z,82.47
2019-03-24T08:34:40.293Z,92.30
2019-03-24T08:37:08.717Z,91.07
2019-03-24T08:39:37.128Z,86.23
2019-03-24T08:42:05.621Z,100.73
2019-03-24T08:44:34.033Z,107.50
2019-03-24T08:47:02.460Z,102.97
2019-03-24T08:49:30.870Z,113.13
2019-03-24T08:51:59.303Z,99.23
2019-03-24T08:54:27.720Z,102.60
2019-03-24T08:56:56.150Z,105.27
2019-03-24T08:59:24.563Z,115.30
2019-03-24T09:01:52.990Z,109.20
2019-03-24T09:04:21.405Z,119.00
2019-03-24T09:06:49.835Z,120.37
2019-03-24T09:09:18.240Z,96.87
2019-03-24T09:11:46.668Z,104.47
2019-03-24T09:14:15.084Z,116.10
2019-03-24T09:16:43.518Z,112.97
2019-03-24T09:19:11.928Z,102.07
2019-03-24T09:21:40.366Z,117.03
2019-03-24T09:24:08.774Z,110.87
2019-03-24T09:26:37.199Z,101.40
2019-03-24T09:29:05.605Z,109.50
2019-03-24T09:31:34.035Z,112.43
2019-03-24T09:34:02.445Z,107.97
2019-03-24T09:36:30.875Z,107.10
2019-03-24T09:38:59.296Z,106.20
2019-03-24T09:41:27.713Z,113.27
2019-03-24T09:43:56.126Z,111.33
2019-03-24T09:46:24.559Z,113.77
2019-03-24T09:49:02.718Z,112.80
2019-03-24T09:51:23.126Z,88.33
2019-03-24T09:53:51.529Z,92.03
2019-03-24T09:56:19.942Z,98.83
2019-03-24T09:58:48.429Z,86.47
2019-03-24T10:01:16.841Z,100.57
2019-03-24T10:03:45.272Z,92.03
2019-03-24T10:06:13.677Z,84.63
2019-03-24T10:08:47.074Z,94.70
2019-03-24T10:11:12.232Z,102.17
2019-03-24T10:13:40.664Z,92.20
2019-03-24T10:16:09.064Z,103.77
2019-03-24T10:18:37.492Z,90.90
2019-03-24T10:21:05.913Z,100.97
2019-03-24T10:23:34.337Z,95.23
2019-03-24T10:26:02.742Z,97.37
2019-03-24T10:28:31.184Z,103.20
2019-03-24T10:30:59.675Z,97.23
2019-03-24T10:33:28.152Z,88.60
2019-03-24T10:35:56.581Z,91.20
2019-03-24T10:38:25.006Z,94.13
2019-03-24T10:40:53.416Z,89.70
2019-03-24T10:43:21.850Z,89.33
2019-03-24T10:45:50.290Z,94.63
2019-03-24T10:48:18.712Z,99.70
2019-03-24T10:50:47.124Z,93.27
2019-03-24T10:53:15.552Z,99.07
2019-03-24T10:55:43.961Z,98.40
2019-03-24T10:58:12.384Z,104.93
2019-03-24T11:00:42.336Z,99.23
2019-03-24T11:03:11.030Z,93.67
2019-03-24T11:05:39.432Z,93.70
2019-03-24T11:08:07.952Z,97.93
2019-03-24T11:10:36.426Z,98.30
2019-03-24T11:13:04.992Z,95.53
2019-03-24T11:15:33.405Z,106.13
2019-03-24T11:18:01.829Z,94.43
2019-03-24T11:20:30.253Z,88.00
2019-03-24T11:22:58.683Z,92.47
2019-03-24T11:25:27.092Z,101.27
2019-03-24T11:27:55.524Z,100.17
2019-03-24T11:30:23.987Z,99.43
2019-03-24T11:32:52.429Z,85.47
2019-03-24T11:35:20.891Z,84.20
2019-03-24T11:37:49.386Z,93.10
2019-03-24T11:40:17.867Z,91.13
2019-03-24T11:42:46.279Z,88.73
2019-03-24T11:45:14.917Z,96.33
2019-03-24T11:47:43.331Z,92.80
2019-03-24T11:50:12.286Z,85.97
2019-03-24T11:52:40.698Z,88.00
2019-03-24T11:55:09.959Z,93.03
2019-03-24T11:57:38.462Z,88.13
2019-03-24T12:00:13.008Z,95.63
2019-03-24T12:02:41.508Z,99.93
2019-03-24T12:05:09.965Z,91.13
2019-03-24T12:07:38.369Z,98.77
2019-03-24T12:10:08.229Z,90.13
2019-03-24T12:12:36.708Z,97.60
2019-03-24T12:15:06.648Z,97.00
2019-03-24T12:17:35.129Z,92.30
2019-03-24T12:20:06.179Z,93.27
2019-03-24T12:22:34.569Z,88.43
2019-03-24T12:25:30.535Z,97.57
2019-03-24T12:27:59.098Z,89.27
2019-03-24T12:34:08.374Z,86.90
2019-03-24T12:36:36.766Z,88.83
2019-03-24T12:39:06.030Z,90.07
2019-03-24T12:41:34.446Z,83.47
2019-03-24T12:44:03.228Z,84.37
2019-03-24T12:46:31.646Z,87.27
2019-03-24T12:49:00.067Z,82.53
2019-03-24T12:51:28.466Z,77.33
2019-03-24T12:53:56.878Z,75.70
2019-03-24T12:56:25.279Z,70.50
2019-03-24T12:58:53.698Z,78.63
2019-03-24T13:01:22.112Z,75.00
2019-03-24T13:03:50.512Z,81.23
2019-03-24T13:06:18.907Z,83.00
2019-03-24T13:08:47.311Z,76.03
2019-03-24T13:11:15.722Z,66.33
2019-03-24T13:13:44.136Z,74.20
2019-03-24T13:16:12.544Z,72.20
2019-03-24T13:18:40.974Z,76.23
2019-03-24T13:21:09.443Z,72.47
2019-03-24T13:23:37.849Z,71.93
2019-03-24T13:26:06.259Z,75.20
2019-03-24T13:28:34.685Z,82.10
2019-03-24T13:31:03.066Z,72.70
2019-03-24T13:33:31.490Z,68.47
2019-03-24T13:36:04.296Z,67.47
2019-03-24T13:38:32.715Z,72.47
2019-03-24T13:41:01.119Z,65.40
2019-03-24T13:43:29.537Z,76.57
2019-03-24T13:45:57.946Z,73.33
2019-03-24T13:48:26.337Z,69.80
2019-03-24T13:50:54.782Z,68.70
2019-03-24T13:53:23.232Z,76.00
2019-03-24T13:55:51.645Z,70.33
2019-03-24T13:58:20.101Z,75.13
2019-03-24T14:00:48.517Z,72.40
2019-03-24T14:03:16.919Z,83.07
2019-03-24T14:05:45.331Z,73.50
2019-03-24T14:08:13.735Z,72.20
2019-03-24T14:10:42.147Z,72.10
2019-03-24T14:13:10.563Z,70.50
2019-03-24T14:15:38.981Z,70.70
2019-03-24T14:18:07.386Z,68.27
2019-03-24T14:20:43.258Z,68.70
2019-03-24T14:23:05.914Z,64.23
2019-03-24T14:25:34.335Z,67.77
2019-03-24T14:28:02.745Z,62.47
2019-03-24T14:30:49.090Z,73.37
2019-03-24T14:33:17.488Z,72.23
2019-03-24T14:35:45.968Z,76.20
2019-03-24T14:38:14.446Z,68.30
2019-03-24T14:40:42.940Z,68.43
2019-03-24T14:43:11.499Z,66.73
2019-03-24T14:45:39.921Z,67.33
2019-03-24T14:48:08.325Z,62.03
2019-03-24T14:50:36.731Z,70.30
2019-03-24T14:53:05.189Z,73.07
2019-03-24T14:55:33.625Z,71.03
2019-03-24T14:58:02.034Z,71.50
2019-03-24T15:00:43.771Z,67.97
2019-03-24T15:03:12.272Z,68.47
2019-03-24T15:05:40.992Z,66.70
2019-03-24T15:08:10.536Z,67.60
2019-03-24T15:10:38.964Z,59.20
2019-03-24T15:13:08.448Z,64.20
2019-03-24T15:15:36.998Z,64.93
2019-03-24T15:18:05.525Z,68.63
2019-03-24T15:20:33.934Z,63.73
2019-03-24T15:23:02.416Z,69.90
2019-03-24T15:25:30.877Z,66.23
2019-03-24T15:27:59.286Z,74.60
2019-03-24T15:30:27.698Z,74.17
2019-03-24T15:32:56.121Z,79.80
2019-03-24T15:35:24.511Z,74.40
2019-03-24T15:37:52.983Z,68.70
2019-03-24T15:40:21.402Z,67.30
2019-03-24T15:42:49.817Z,70.60
2019-03-24T15:45:18.291Z,71.30
2019-03-24T15:47:46.695Z,68.43
2019-03-24T15:50:15.120Z,69.70
2019-03-24T15:52:43.509Z,76.93
2019-03-24T15:55:12.008Z,70.87
2019-03-24T15:57:40.398Z,70.27
2019-03-24T16:00:09.538Z,78.67
2019-03-24T16:02:37.959Z,74.13
2019-03-24T16:05:07.341Z,75.27
2019-03-24T16:07:35.980Z,69.50
2019-03-24T16:10:06.436Z,75.80
2019-03-24T16:12:34.836Z,68.90
2019-03-24T16:15:04.598Z,72.37
2019-03-24T16:17:33.075Z,72.23
2019-03-24T16:20:01.477Z,67.83
2019-03-24T16:22:30.000Z,68.20
2019-03-24T16:24:58.747Z,69.73
2019-03-24T16:27:27.158Z,76.20
2019-03-24T16:29:55.557Z,78.87
2019-03-24T16:32:23.965Z,64.13
2019-03-24T16:34:52.382Z,75.07
2019-03-24T16:37:20.795Z,76.03
2019-03-24T16:39:49.214Z,70.10
2019-03-24T16:42:17.619Z,71.23
2019-03-24T16:44:46.073Z,65.30
2019-03-24T16:47:14.536Z,69.43
2019-03-24T16:49:42.909Z,74.17
2019-03-24T16:52:11.337Z,78.33
2019-03-24T16:54:39.989Z,67.33
2019-03-24T16:57:08.397Z,71.57
2019-03-24T16:59:36.857Z,74.33
2019-03-24T17:02:05.298Z,66.73
2019-03-24T17:04:33.718Z,73.90
2019-03-24T17:07:02.135Z,72.30
2019-03-24T17:09:30.531Z,63.90
2019-03-24T17:11:58.958Z,66.53
2019-03-24T17:14:27.354Z,69.70
2019-03-24T17:16:55.765Z,66.40
2019-03-24T17:19:24.194Z,71.03
2019-03-24T17:21:52.622Z,68.57
2019-03-24T17:24:21.010Z,73.03
2019-03-24T17:26:49.448Z,65.87
2019-03-24T17:29:17.850Z,68.87
2019-03-24T17:31:46.289Z,68.07
2019-03-24T17:34:14.696Z,63.13
2019-03-24T17:36:43.123Z,65.43
2019-03-24T17:39:11.791Z,71.67
2019-03-24T17:41:40.204Z,71.40
2019-03-24T17:44:08.612Z,67.70
2019-03-24T17:46:37.029Z,73.03
2019-03-24T17:49:05.428Z,66.93
2019-03-24T17:51:33.850Z,61.13
2019-03-24T17:54:02.251Z,65.93
2019-03-24T17:56:30.668Z,73.30
2019-03-24T17:58:59.086Z,62.80
2019-03-24T18:01:27.491Z,63.37
2019-03-24T18:03:55.895Z,65.80
2019-03-24T18:06:24.440Z,65.27
2019-03-24T18:08:52.853Z,68.57
2019-03-24T18:11:21.259Z,76.00
2019-03-24T18:13:49.650Z,64.03
2019-03-24T18:16:18.066Z,66.63
2019-03-24T18:18:46.476Z,72.50
2019-03-24T18:21:16.591Z,68.47
2019-03-24T18:23:45.029Z,73.43
2019-03-24T18:26:13.421Z,68.07
2019-03-24T18:28:41.838Z,69.10
2019-03-24T18:31:10.225Z,74.23
2019-03-24T18:33:38.647Z,71.97
2019-03-24T18:36:07.041Z,77.00
2019-03-24T18:38:35.441Z,68.33
2019-03-24T18:41:03.916Z,75.17
2019-03-24T18:43:32.331Z,69.27
2019-03-24T18:46:00.752Z,75.23
2019-03-24T18:48:29.167Z,83.50
2019-03-24T18:50:57.569Z,221.57
2019-03-24T18:53:25.994Z,96.23
2019-03-24T18:55:54.386Z,116.03
2019-03-24T18:58:22.807Z,108.93
2019-03-24T19:00:51.213Z,82.40
2019-03-24T19:03:19.626Z,78.07
2019-03-24T19:05:48.031Z,73.40
2019-03-24T19:08:16.458Z,75.10
2019-03-24T19:10:44.865Z,68.30
2019-03-24T19:13:13.279Z,76.90
2019-03-24T19:15:41.676Z,78.43
2019-03-24T19:18:10.092Z,72.07
2019-03-24T19:20:38.502Z,78.20
2019-03-24T19:23:06.917Z,72.87
2019-03-24T19:25:35.329Z,80.10
2019-03-24T19:28:03.811Z,81.17
2019-03-24T19:30:34.925Z,79.70
2019-03-24T19:33:03.339Z,64.73
2019-03-24T19:35:31.744Z,67.57
2019-03-24T19:38:00.814Z,60.87
2019-03-24T19:40:31.357Z,144.50
2019-03-24T19:42:59.912Z,74.33
2019-03-24T19:45:28.316Z,68.23
2019-03-24T19:47:56.809Z,74.00
2019-03-24T19:50:25.558Z,69.53
2019-03-24T19:52:53.985Z,87.70
2019-03-24T19:55:22.366Z,76.33
2019-03-24T19:57:50.788Z,77.10
2019-03-24T20:00:19.255Z,70.27
2019-03-24T20:02:48.026Z,73.87
2019-03-24T20:05:16.456Z,66.53
2019-03-24T20:07:48.145Z,67.97
2019-03-24T20:10:15.203Z,67.80
2019-03-24T20:12:43.615Z,68.20
2019-03-24T20:15:12.480Z,68.53
2019-03-24T20:17:40.879Z,72.23
2019-03-24T20:20:10.022Z,64.70
2019-03-24T20:22:38.434Z,73.23
2019-03-24T20:25:08.390Z,59.57
2019-03-24T20:27:37.757Z,60.07
2019-03-24T20:30:11.119Z,74.27
2019-03-24T20:32:39.518Z,61.43
2019-03-24T20:35:08.364Z,63.83
2019-03-24T20:37:36.774Z,65.63
2019-03-24T20:40:07.111Z,59.93
2019-03-24T20:42:35.523Z,61.10
2019-03-24T20:45:08.806Z,67.27
2019-03-24T20:47:37.205Z,66.57
2019-03-24T20:50:07.648Z,71.37
2019-03-24T20:52:36.063Z,73.20
2019-03-24T20:55:05.923Z,67.23
2019-03-24T20:57:34.413Z,68.87
2019-03-24T21:00:02.983Z,63.13
2019-03-24T21:02:31.416Z,62.30
2019-03-24T21:04:59.879Z,59.53
2019-03-24T21:07:28.299Z,59.10
2019-03-24T21:09:56.698Z,63.77
2019-03-24T21:12:25.105Z,63.60
2019-03-24T21:14:53.518Z,68.27
2019-03-24T21:17:21.934Z,69.37
2019-03-24T21:19:50.346Z,74.03
2019-03-24T21:22:18.763Z,64.27
2019-03-24T21:24:47.172Z,56.80
2019-03-24T21:27:15.584Z,57.60
2019-03-24T21:29:44.000Z,58.50
2019-03-24T21:32:12.396Z,55.93
2019-03-24T21:34:40.812Z,61.57
2019-03-24T21:37:09.209Z,63.53
2019-03-24T21:39:37.623Z,54.87
2019-03-24T21:42:06.029Z,57.13
2019-03-24T21:44:34.443Z,60.77
2019-03-24T21:47:02.863Z,55.90
2019-03-24T21:49:31.276Z,63.73
2019-03-24T21:51:59.661Z,55.93
2019-03-24T21:54:28.074Z,52.03
2019-03-24T21:56:56.469Z,51.27
2019-03-24T21:59:24.893Z,51.30
2019-03-24T22:01:53.292Z,56.93
2019-03-24T22:04:21.712Z,55.13
2019-03-24T22:06:50.115Z,51.77
2019-03-24T22:09:18.546Z,50.20
2019-03-24T22:11:46.933Z,53.07
2019-03-24T22:14:15.644Z,46.50
2019-03-24T22:16:44.117Z,48.00
2019-03-24T22:19:12.538Z,42.07
2019-03-24T22:21:40.950Z,36.27
2019-03-24T22:24:09.358Z,41.23
2019-03-24T22:26:37.749Z,36.67
2019-03-24T22:29:06.182Z,34.97
2019-03-24T22:31:34.667Z,35.20
2019-03-24T22:34:03.375Z,37.83
2019-03-24T22:36:31.783Z,34.97
2019-03-24T22:39:00.208Z,37.27
2019-03-24T22:41:28.596Z,42.43
2019-03-24T22:43:57.020Z,33.47
2019-03-24T22:46:25.436Z,35.97
2019-03-24T22:48:53.864Z,38.00
2019-03-24T22:51:22.265Z,38.33
2019-03-24T22:53:50.679Z,40.93
2019-03-24T22:56:19.094Z,39.03
2019-03-24T22:58:47.503Z,37.83
2019-03-24T23:01:16.750Z,38.23
2019-03-24T23:03:45.167Z,32.83
2019-03-24T23:06:13.569Z,42.47
2019-03-24T23:08:42.050Z,37.73
2019-03-24T23:11:10.437Z,37.23
2019-03-24T23:13:38.857Z,36.67
2019-03-24T23:16:07.251Z,33.60
2019-03-24T23:18:35.664Z,33.37
2019-03-24T23:21:04.134Z,35.90
2019-03-24T23:23:32.530Z,34.93
2019-03-24T23:26:00.967Z,38.33
2019-03-24T23:28:29.375Z,39.70
2019-03-24T23:30:57.787Z,37.97
2019-03-24T23:33:26.182Z,35.67
2019-03-24T23:35:54.592Z,45.80
2019-03-24T23:38:22.991Z,42.10
2019-03-24T23:40:51.415Z,42.23
2019-03-24T23:43:19.828Z,38.03
2019-03-24T23:45:48.237Z,38.87
2019-03-24T23:48:16.674Z,42.27
2019-03-24T23:50:45.105Z,42.93
2019-03-24T23:53:13.513Z,42.13
2019-03-24T23:55:42.057Z,47.67
2019-03-24T23:58:10.501Z,44.67
